New York, New York
Current Conditions -  °F | °C
As of 6:51 AM on Sunday 23 Nov 2014 (Local Time) from KNYC Reporting Station
Overcast Overcast  
Wind Chill: 40°   Ceiling: 11000
Heat Index: 44°   Visibility: 10mi
Dew Point: 22°   Wind: 8mph
Humidity: 42%   Direction: 270°W
Pressure: 30.21"   Gusts: NA
Location:  40.71°N, 74.01°W
Report Text: KNYC 231151Z AUTO 27007KT 240V300 10SM FEW085 OVC110 07/M06 A3021 RMK AO2 SLP223 T00671056 10072 20061 51008 $
Loading
Personal Weather Stations






























Interactive Weather Map New forecast layout! Learn more

10-Day Weather Forecast

Advertisements
Track Severe Weather on mobile